Time;durP1;ratioP1;P1;durP2;ratioP2;P2;SDS_P1;SDS_P2;PMS_P1;PMS_P2;Temp;Humidity;BMP_temperature;BMP_pressure;BME280_temperature;BME280_humidity;BME280_pressure;Samples;Min_cycle;Max_cycle;Signal;HPM_P1;HPM_P2
2021/09/27 00:00:20;;;;;;;22.83;12.02;;;;;;;;;;5032285;28;20071;-64
2021/09/27 00:02:47;;;;;;;20.90;10.98;;;;;;;;;;5032607;28;20053;-64
2021/09/27 00:05:19;;;;;;;22.23;11.35;;;;;;;;;;5032326;28;20053;-64
2021/09/27 00:07:46;;;;;;;19.15;10.73;;;;;;;;;;5032713;28;20049;-64
2021/09/27 00:10:17;;;;;;;21.58;11.05;;;;;;;;;;5032251;28;20050;-64
2021/09/27 00:12:44;;;;;;;26.63;13.05;;;;;;;;;;5032212;28;20059;-64
2021/09/27 00:15:14;;;;;;;23.13;12.38;;;;;;;;;;5032316;28;20049;-64
2021/09/27 00:17:41;;;;;;;26.20;13.45;;;;;;;;;;5032604;28;20091;-64
2021/09/27 00:20:10;;;;;;;21.17;11.00;;;;;;;;;;5032187;28;20049;-64
2021/09/27 00:22:38;;;;;;;23.33;11.50;;;;;;;;;;5032139;28;20049;-62
2021/09/27 00:25:07;;;;;;;23.25;12.38;;;;;;;;;;5031903;28;20061;-64
2021/09/27 00:27:34;;;;;;;23.88;13.00;;;;;;;;;;5032396;28;20526;-63
2021/09/27 00:30:01;;;;;;;26.33;13.27;;;;;;;;;;5032187;28;20430;-63
2021/09/27 00:32:28;;;;;;;24.70;13.80;;;;;;;;;;5032749;28;20569;-63
2021/09/27 00:34:55;;;;;;;20.95;11.25;;;;;;;;;;5032254;28;20053;-63
2021/09/27 00:37:22;;;;;;;22.20;11.60;;;;;;;;;;5032196;28;20520;-63
2021/09/27 00:39:51;;;;;;;22.52;11.80;;;;;;;;;;5032014;28;20046;-63
2021/09/27 00:42:18;;;;;;;19.55;11.10;;;;;;;;;;5032269;28;20045;-64
2021/09/27 00:44:45;;;;;;;22.73;11.75;;;;;;;;;;5031639;28;20049;-63
2021/09/27 00:47:12;;;;;;;24.35;12.40;;;;;;;;;;5031942;28;20056;-64
2021/09/27 00:49:39;;;;;;;23.80;13.27;;;;;;;;;;5031565;28;20049;-64
2021/09/27 00:52:06;;;;;;;23.15;12.38;;;;;;;;;;5032189;28;20059;-65
2021/09/27 00:54:36;;;;;;;30.20;13.35;;;;;;;;;;5031523;28;20053;-65
2021/09/27 00:57:12;;;;;;;24.77;13.13;;;;;;;;;;5031813;28;20413;-64
2021/09/27 00:59:40;;;;;;;22.80;12.68;;;;;;;;;;5031726;28;20065;-64
2021/09/27 01:02:08;;;;;;;24.75;12.63;;;;;;;;;;5033075;28;20095;-64
2021/09/27 01:04:36;;;;;;;25.73;12.25;;;;;;;;;;5035195;28;20052;-64
2021/09/27 01:07:17;;;;;;;23.42;12.23;;;;;;;;;;5035598;28;20057;-64
2021/09/27 01:10:27;;;;;;;23.35;12.18;;;;;;;;;;5035326;28;20049;-63
2021/09/27 01:13:14;;;;;;;24.85;11.68;;;;;;;;;;5035582;28;20052;-62
2021/09/27 01:15:52;;;;;;;22.13;11.85;;;;;;;;;;5035106;28;20053;-63
2021/09/27 01:18:33;;;;;;;24.58;12.32;;;;;;;;;;5035224;28;20053;-63
2021/09/27 01:21:11;;;;;;;21.63;11.57;;;;;;;;;;5035185;28;20060;-63
2021/09/27 01:24:09;;;;;;;23.63;12.50;;;;;;;;;;5034923;28;20506;-64
2021/09/27 01:27:13;;;;;;;22.90;12.60;;;;;;;;;;5035146;28;20046;-64
2021/09/27 01:29:57;;;;;;;24.35;12.48;;;;;;;;;;5032289;28;20056;-64
2021/09/27 01:32:44;;;;;;;25.58;12.77;;;;;;;;;;5034954;28;20509;-64
2021/09/27 01:35:29;;;;;;;22.02;11.50;;;;;;;;;;5034751;28;20104;-63
2021/09/27 01:38:13;;;;;;;24.77;13.35;;;;;;;;;;5034876;28;20053;-64
2021/09/27 01:40:53;;;;;;;22.08;12.05;;;;;;;;;;5034911;28;20055;-64
2021/09/27 01:43:25;;;;;;;18.77;10.90;;;;;;;;;;5034850;28;20049;-64
2021/09/27 01:45:58;;;;;;;23.30;12.20;;;;;;;;;;5034644;28;20049;-64
2021/09/27 01:48:30;;;;;;;22.80;12.45;;;;;;;;;;5034707;28;20128;-64
2021/09/27 01:51:00;;;;;;;20.77;11.50;;;;;;;;;;5034801;28;20057;-64
2021/09/27 01:53:33;;;;;;;25.13;13.07;;;;;;;;;;5034623;28;20053;-64
2021/09/27 01:56:06;;;;;;;23.05;12.43;;;;;;;;;;5024164;28;20132;-64
2021/09/27 01:58:46;;;;;;;24.08;12.18;;;;;;;;;;5014960;28;20050;-65
2021/09/27 02:01:19;;;;;;;24.02;14.00;;;;;;;;;;5014695;28;20053;-64
2021/09/27 02:03:55;;;;;;;24.73;12.98;;;;;;;;;;5014723;28;20057;-64
2021/09/27 02:06:35;;;;;;;22.92;12.80;;;;;;;;;;5014466;28;20049;-64
2021/09/27 02:09:07;;;;;;;24.52;13.05;;;;;;;;;;5014465;28;20053;-64
2021/09/27 02:11:37;;;;;;;24.75;11.90;;;;;;;;;;5014174;28;20049;-64
2021/09/27 02:14:12;;;;;;;23.30;12.25;;;;;;;;;;5014311;28;20483;-64
2021/09/27 02:16:45;;;;;;;23.95;13.02;;;;;;;;;;5014747;28;20557;-65
2021/09/27 02:19:20;;;;;;;27.75;14.48;;;;;;;;;;5014719;28;20416;-65
2021/09/27 02:21:55;;;;;;;24.52;13.80;;;;;;;;;;5014116;28;20062;-64
2021/09/27 02:24:42;;;;;;;26.90;13.88;;;;;;;;;;5014148;28;20482;-65
2021/09/27 02:27:10;;;;;;;23.52;13.27;;;;;;;;;;5014464;28;20060;-64
2021/09/27 02:29:37;;;;;;;28.10;13.68;;;;;;;;;;5014110;28;20052;-63
2021/09/27 02:32:11;;;;;;;27.58;14.25;;;;;;;;;;5014045;28;20088;-65
2021/09/27 02:34:47;;;;;;;27.35;14.25;;;;;;;;;;5014058;28;20104;-65
2021/09/27 02:37:22;;;;;;;29.77;15.23;;;;;;;;;;5014369;28;20050;-65
2021/09/27 02:39:54;;;;;;;34.72;18.33;;;;;;;;;;5014161;28;20060;-66
2021/09/27 02:42:28;;;;;;;29.40;16.65;;;;;;;;;;5014149;28;20069;-64
2021/09/27 02:44:55;;;;;;;29.80;16.80;;;;;;;;;;5014030;28;20050;-63
2021/09/27 02:47:27;;;;;;;31.77;16.02;;;;;;;;;;5013705;28;20050;-63
2021/09/27 02:49:58;;;;;;;27.08;14.52;;;;;;;;;;5014167;28;20050;-65
2021/09/27 02:52:27;;;;;;;28.73;15.20;;;;;;;;;;5013746;28;20062;-65
2021/09/27 02:54:57;;;;;;;30.88;15.50;;;;;;;;;;5015161;28;20050;-64
2021/09/27 02:57:56;;;;;;;26.38;14.43;;;;;;;;;;5033298;28;20049;-65
2021/09/27 03:00:30;;;;;;;30.17;15.20;;;;;;;;;;5033275;28;20053;-64
2021/09/27 03:03:07;;;;;;;24.05;13.15;;;;;;;;;;5033572;28;20514;-64
2021/09/27 03:05:52;;;;;;;27.83;14.85;;;;;;;;;;5033131;28;20049;-63
2021/09/27 03:08:46;;;;;;;24.77;13.02;;;;;;;;;;5033194;28;20051;-64
2021/09/27 03:11:33;;;;;;;32.42;18.35;;;;;;;;;;5030550;28;20057;-64
2021/09/27 03:14:14;;;;;;;32.78;17.45;;;;;;;;;;5033094;28;20486;-64
2021/09/27 03:16:53;;;;;;;28.65;14.15;;;;;;;;;;5033104;28;20053;-63
2021/09/27 03:19:47;;;;;;;27.95;13.40;;;;;;;;;;5032900;28;20053;-64
2021/09/27 03:22:23;;;;;;;24.08;11.30;;;;;;;;;;5032803;28;20549;-64
2021/09/27 03:25:04;;;;;;;26.00;13.65;;;;;;;;;;5032047;28;20183;-64
2021/09/27 03:27:40;;;;;;;21.60;10.65;;;;;;;;;;5032773;28;20056;-63
2021/09/27 03:30:16;;;;;;;25.70;13.73;;;;;;;;;;5032836;28;20053;-64
2021/09/27 03:32:56;;;;;;;24.25;13.05;;;;;;;;;;5032783;28;20041;-64
2021/09/27 03:35:35;;;;;;;23.60;13.18;;;;;;;;;;5032904;28;20045;-62
2021/09/27 03:38:07;;;;;;;23.95;13.02;;;;;;;;;;5032732;28;20052;-65
2021/09/27 03:40:55;;;;;;;26.67;13.70;;;;;;;;;;5032752;28;20053;-65
2021/09/27 03:43:31;;;;;;;25.27;13.05;;;;;;;;;;5032680;28;20053;-65
2021/09/27 03:46:08;;;;;;;24.00;13.80;;;;;;;;;;5032531;28;20053;-66
2021/09/27 03:48:42;;;;;;;25.05;13.40;;;;;;;;;;5032952;28;20049;-64
2021/09/27 03:51:18;;;;;;;27.13;13.43;;;;;;;;;;5032852;28;20055;-64
2021/09/27 03:53:52;;;;;;;26.70;14.18;;;;;;;;;;5032886;28;20049;-64
2021/09/27 03:56:25;;;;;;;27.73;15.43;;;;;;;;;;5054540;22;20501;-66
2021/09/27 03:58:58;;;;;;;26.60;13.77;;;;;;;;;;5052141;28;20053;-66
2021/09/27 04:01:38;;;;;;;25.77;14.18;;;;;;;;;;5052022;28;20092;-66
2021/09/27 04:04:16;;;;;;;22.95;12.60;;;;;;;;;;5051963;28;20064;-66
2021/09/27 04:06:58;;;;;;;24.05;12.63;;;;;;;;;;5051997;28;20057;-66
2021/09/27 04:09:47;;;;;;;24.85;12.45;;;;;;;;;;5052220;28;20061;-66
2021/09/27 04:12:25;;;;;;;23.67;12.77;;;;;;;;;;5052292;28;20052;-66
2021/09/27 04:14:59;;;;;;;28.50;13.38;;;;;;;;;;5052090;28;20052;-66
2021/09/27 04:17:37;;;;;;;24.85;13.00;;;;;;;;;;5051923;28;20603;-66
2021/09/27 04:20:08;;;;;;;21.75;12.52;;;;;;;;;;5051850;28;20063;-66
2021/09/27 04:22:36;;;;;;;;;;;;;;;;;;5052177;28;20489;-66
2021/09/27 04:25:15;;;;;;;18.88;9.73;;;;;;;;;;5051527;28;19925;-66
2021/09/27 04:28:30;;;;;;;19.77;10.73;;;;;;;;;;5052133;28;20145;-66
2021/09/27 04:31:14;;;;;;;20.10;10.20;;;;;;;;;;5051699;28;20083;-66
2021/09/27 04:34:16;;;;;;;22.20;11.90;;;;;;;;;;5051447;28;20498;-66
2021/09/27 04:36:46;;;;;;;20.70;11.45;;;;;;;;;;5050225;28;20045;-66
2021/09/27 04:39:15;;;;;;;22.40;12.20;;;;;;;;;;5055781;28;20516;-66
2021/09/27 04:42:08;;;;;;;22.00;12.05;;;;;;;;;;5055617;28;20053;-66
2021/09/27 04:44:52;;;;;;;20.02;11.45;;;;;;;;;;5055852;28;20705;-66
2021/09/27 04:47:27;;;;;;;20.70;11.60;;;;;;;;;;5055710;28;20048;-66
2021/09/27 04:50:10;;;;;;;20.90;10.43;;;;;;;;;;5055464;28;20088;-67
2021/09/27 04:52:50;;;;;;;20.15;11.73;;;;;;;;;;5055608;28;20086;-66
2021/09/27 04:55:36;;;;;;;24.05;12.07;;;;;;;;;;5050650;28;20077;-66
2021/09/27 04:58:20;;;;;;;21.67;12.13;;;;;;;;;;5035569;28;20071;-66
2021/09/27 05:00:59;;;;;;;18.60;10.18;;;;;;;;;;5035391;28;20059;-66
2021/09/27 05:03:46;;;;;;;21.75;12.65;;;;;;;;;;5035153;28;20056;-66
2021/09/27 05:06:33;;;;;;;21.00;12.20;;;;;;;;;;5035409;28;20060;-66
2021/09/27 05:09:05;;;;;;;22.67;11.25;;;;;;;;;;5035346;28;20060;-66
2021/09/27 05:12:02;;;;;;;21.58;12.00;;;;;;;;;;5035341;28;20387;-66
2021/09/27 05:14:47;;;;;;;22.00;12.27;;;;;;;;;;5035018;28;20475;-66
2021/09/27 05:17:32;;;;;;;21.17;11.77;;;;;;;;;;5035344;28;20099;-66
2021/09/27 05:20:13;;;;;;;25.92;13.18;;;;;;;;;;5035362;28;20049;-66
2021/09/27 05:23:05;;;;;;;27.20;13.65;;;;;;;;;;5035185;28;20049;-66
2021/09/27 05:26:22;;;;;;;28.02;15.20;;;;;;;;;;5034799;28;20054;-67
2021/09/27 05:29:07;;;;;;;34.60;16.60;;;;;;;;;;5035146;28;20050;-64
2021/09/27 05:32:02;;;;;;;35.60;16.65;;;;;;;;;;5035166;28;20061;-66
2021/09/27 05:34:42;;;;;;;28.55;14.77;;;;;;;;;;5011369;28;20049;-66
2021/09/27 05:37:36;;;;;;;29.63;16.13;;;;;;;;;;5014986;28;20395;-66
2021/09/27 05:40:15;;;;;;;29.30;15.05;;;;;;;;;;5015001;28;20411;-66
2021/09/27 05:42:55;;;;;;;28.65;14.27;;;;;;;;;;5015321;28;20056;-66
2021/09/27 05:45:29;;;;;;;27.38;13.85;;;;;;;;;;5014733;28;20570;-66
2021/09/27 05:48:07;;;;;;;26.40;13.10;;;;;;;;;;5014075;28;20050;-66
2021/09/27 05:50:39;;;;;;;25.77;13.70;;;;;;;;;;5015043;28;20053;-66
2021/09/27 05:53:15;;;;;;;24.98;13.43;;;;;;;;;;5014642;28;20049;-66
2021/09/27 05:55:49;;;;;;;22.58;12.55;;;;;;;;;;5022678;28;20520;-66
2021/09/27 05:58:24;;;;;;;23.38;12.10;;;;;;;;;;5034609;28;20140;-67
2021/09/27 06:01:00;;;;;;;23.90;12.93;;;;;;;;;;5034364;28;20054;-65
2021/09/27 06:03:41;;;;;;;26.45;13.73;;;;;;;;;;5034012;28;20050;-65
2021/09/27 06:06:26;;;;;;;23.88;12.70;;;;;;;;;;5034039;28;20049;-65
2021/09/27 06:09:04;;;;;;;22.90;12.25;;;;;;;;;;5034142;28;20049;-66
2021/09/27 06:11:39;;;;;;;26.33;12.68;;;;;;;;;;5034398;28;20053;-66
2021/09/27 06:14:12;;;;;;;23.35;12.05;;;;;;;;;;5033978;28;20060;-66
2021/09/27 06:17:03;;;;;;;26.27;12.63;;;;;;;;;;5033884;28;20049;-66
2021/09/27 06:19:44;;;;;;;26.33;13.65;;;;;;;;;;5033727;28;20049;-66
2021/09/27 06:22:26;;;;;;;28.45;13.82;;;;;;;;;;5034117;28;20330;-66
2021/09/27 06:25:04;;;;;;;30.17;13.07;;;;;;;;;;5033898;28;20388;-66
2021/09/27 06:27:38;;;;;;;28.95;13.98;;;;;;;;;;5033825;28;20144;-65
2021/09/27 06:30:12;;;;;;;32.10;16.88;;;;;;;;;;5033826;28;20045;-66
2021/09/27 06:32:51;;;;;;;29.48;13.73;;;;;;;;;;5033937;28;20057;-66
2021/09/27 06:35:22;;;;;;;30.60;14.20;;;;;;;;;;5033669;28;20049;-66
2021/09/27 06:37:50;;;;;;;26.02;13.13;;;;;;;;;;5033603;28;20045;-66
2021/09/27 06:40:18;;;;;;;26.73;14.52;;;;;;;;;;5033390;28;20144;-66
2021/09/27 06:42:47;;;;;;;25.05;12.70;;;;;;;;;;5033887;28;20462;-66
2021/09/27 06:45:14;;;;;;;25.45;12.82;;;;;;;;;;5033641;28;20477;-66
2021/09/27 06:47:41;;;;;;;25.67;12.48;;;;;;;;;;5033481;28;20546;-66
2021/09/27 06:50:10;;;;;;;25.60;12.95;;;;;;;;;;5033296;28;20055;-66
2021/09/27 06:52:39;;;;;;;24.70;12.75;;;;;;;;;;5033314;28;20498;-65
2021/09/27 06:55:08;;;;;;;27.13;13.60;;;;;;;;;;5029979;28;20056;-66
2021/09/27 06:57:35;;;;;;;25.50;13.05;;;;;;;;;;5013686;28;20061;-66
2021/09/27 07:00:02;;;;;;;25.27;12.70;;;;;;;;;;5012395;28;20054;-66
2021/09/27 07:02:29;;;;;;;25.25;12.52;;;;;;;;;;5013409;28;20054;-66
2021/09/27 07:04:56;;;;;;;24.08;12.07;;;;;;;;;;5013156;28;20144;-66
2021/09/27 07:07:23;;;;;;;25.98;13.27;;;;;;;;;;5013298;28;20046;-66
2021/09/27 07:09:51;;;;;;;20.13;10.38;;;;;;;;;;5013462;28;20478;-66
2021/09/27 07:12:18;;;;;;;20.80;10.77;;;;;;;;;;5013301;28;20510;-66
2021/09/27 07:14:45;;;;;;;22.15;11.35;;;;;;;;;;5012768;28;20133;-66
2021/09/27 07:17:12;;;;;;;19.23;10.73;;;;;;;;;;5013313;28;20495;-66
2021/09/27 07:19:41;;;;;;;18.92;10.95;;;;;;;;;;5012932;28;20499;-68
2021/09/27 07:22:09;;;;;;;19.38;11.43;;;;;;;;;;5013168;28;20054;-66
2021/09/27 07:24:36;;;;;;;17.92;10.15;;;;;;;;;;5012954;28;20473;-66
2021/09/27 07:27:05;;;;;;;20.13;8.77;;;;;;;;;;5013096;28;20057;-66
2021/09/27 07:29:32;;;;;;;19.30;10.70;;;;;;;;;;5012819;28;20072;-66
2021/09/27 07:31:59;;;;;;;15.27;8.55;;;;;;;;;;5012786;28;20047;-66
2021/09/27 07:34:27;;;;;;;16.23;8.75;;;;;;;;;;5012416;28;20054;-66
2021/09/27 07:36:54;;;;;;;14.90;7.95;;;;;;;;;;5013242;28;20539;-66
2021/09/27 07:39:21;;;;;;;18.05;9.40;;;;;;;;;;5012717;28;20145;-66
2021/09/27 07:41:48;;;;;;;17.13;9.02;;;;;;;;;;5012650;28;20056;-66
2021/09/27 07:44:17;;;;;;;17.85;8.75;;;;;;;;;;5012706;28;20137;-66
2021/09/27 07:46:44;;;;;;;18.42;8.93;;;;;;;;;;5012776;28;20487;-66
2021/09/27 07:49:11;;;;;;;15.45;8.25;;;;;;;;;;5012811;28;20505;-66
2021/09/27 07:51:39;;;;;;;17.90;8.25;;;;;;;;;;5012774;28;20128;-66
2021/09/27 07:54:06;;;;;;;15.85;8.75;;;;;;;;;;5012470;28;20054;-66
2021/09/27 07:56:33;;;;;;;15.77;8.63;;;;;;;;;;5027299;28;20059;-66
2021/09/27 07:59:06;;;;;;;17.35;9.95;;;;;;;;;;5032117;28;20128;-66
2021/09/27 08:01:34;;;;;;;15.95;8.75;;;;;;;;;;5031856;28;20140;-66
2021/09/27 08:04:01;;;;;;;16.20;8.45;;;;;;;;;;5031953;28;20060;-66
2021/09/27 08:06:28;;;;;;;13.23;8.18;;;;;;;;;;5032045;28;20045;-66
2021/09/27 08:08:55;;;;;;;14.73;8.50;;;;;;;;;;5032127;28;20054;-66
2021/09/27 08:11:22;;;;;;;16.15;8.43;;;;;;;;;;5031730;28;20498;-66
2021/09/27 08:13:49;;;;;;;16.50;10.20;;;;;;;;;;5031748;28;20527;-66
2021/09/27 08:16:16;;;;;;;16.88;10.20;;;;;;;;;;5032006;28;20402;-66
2021/09/27 08:18:45;;;;;;;20.27;12.15;;;;;;;;;;5031941;28;20053;-67
2021/09/27 08:21:17;;;;;;;19.45;11.00;;;;;;;;;;5031681;28;20045;-66
2021/09/27 08:23:44;;;;;;;21.05;11.45;;;;;;;;;;5031476;28;20453;-66
2021/09/27 08:26:12;;;;;;;21.83;11.45;;;;;;;;;;5031703;28;20453;-66
2021/09/27 08:28:40;;;;;;;19.08;10.80;;;;;;;;;;5031495;28;20052;-66
2021/09/27 08:31:11;;;;;;;19.70;11.65;;;;;;;;;;5031581;28;20057;-66
2021/09/27 08:33:39;;;;;;;20.98;11.60;;;;;;;;;;5031450;28;20498;-66
2021/09/27 08:36:10;;;;;;;19.88;10.75;;;;;;;;;;5031764;28;20053;-66
2021/09/27 08:38:38;;;;;;;22.77;11.48;;;;;;;;;;5031743;28;20530;-66
2021/09/27 08:41:15;;;;;;;21.05;11.55;;;;;;;;;;5031946;28;20115;-66
2021/09/27 08:43:56;;;;;;;19.45;10.32;;;;;;;;;;5031534;28;20049;-66
2021/09/27 08:46:27;;;;;;;24.63;13.48;;;;;;;;;;5031614;28;20049;-66
2021/09/27 08:49:04;;;;;;;22.42;13.07;;;;;;;;;;5031652;28;20104;-67
2021/09/27 08:51:35;;;;;;;22.85;12.50;;;;;;;;;;5031262;28;20054;-67
2021/09/27 08:54:05;;;;;;;21.52;12.43;;;;;;;;;;5031301;28;20059;-67
2021/09/27 08:56:36;;;;;;;22.40;11.70;;;;;;;;;;5016567;28;20054;-67
2021/09/27 08:59:07;;;;;;;22.15;11.98;;;;;;;;;;5012038;28;20422;-67
2021/09/27 09:01:42;;;;;;;19.77;10.82;;;;;;;;;;5011811;28;20054;-66
2021/09/27 09:04:18;;;;;;;20.08;11.27;;;;;;;;;;5011386;28;20046;-66
2021/09/27 09:06:50;;;;;;;22.30;11.85;;;;;;;;;;5011915;28;20049;-66
2021/09/27 09:09:19;;;;;;;23.55;12.65;;;;;;;;;;5011703;28;20422;-66
2021/09/27 09:11:51;;;;;;;18.95;10.57;;;;;;;;;;5012386;28;20050;-66
2021/09/27 09:14:24;;;;;;;21.55;12.60;;;;;;;;;;5010979;28;20061;-66
2021/09/27 09:16:52;;;;;;;22.92;13.40;;;;;;;;;;5012064;28;20392;-66
2021/09/27 09:19:25;;;;;;;22.77;13.63;;;;;;;;;;5011626;28;20069;-66
2021/09/27 09:21:57;;;;;;;22.88;12.05;;;;;;;;;;5011632;28;20159;-66
2021/09/27 09:24:27;;;;;;;23.33;11.90;;;;;;;;;;5014552;28;20141;-66
2021/09/27 09:26:59;;;;;;;20.40;11.40;;;;;;;;;;5015001;28;20415;-66
2021/09/27 09:29:30;;;;;;;22.30;11.82;;;;;;;;;;5015177;28;20398;-66
2021/09/27 09:32:00;;;;;;;19.92;11.52;;;;;;;;;;5015399;28;20137;-66
2021/09/27 09:34:32;;;;;;;21.25;12.02;;;;;;;;;;5015106;28;20243;-66
2021/09/27 09:37:07;;;;;;;27.67;15.85;;;;;;;;;;5014787;28;20058;-66
2021/09/27 09:39:37;;;;;;;23.20;13.70;;;;;;;;;;5014696;28;20062;-69
2021/09/27 09:42:05;;;;;;;;;;;;;;;;;;5015387;28;20089;-66
2021/09/27 09:44:37;;;;;;;18.55;10.55;;;;;;;;;;5014776;28;19928;-66
2021/09/27 09:47:08;;;;;;;19.52;10.93;;;;;;;;;;5014746;28;20045;-66
2021/09/27 09:49:58;;;;;;;21.00;11.98;;;;;;;;;;5014897;28;20058;-66
2021/09/27 09:52:34;;;;;;;19.95;12.35;;;;;;;;;;5015148;28;20050;-66
2021/09/27 09:55:02;;;;;;;22.30;12.93;;;;;;;;;;5016385;28;20050;-66
2021/09/27 09:57:36;;;;;;;24.10;12.23;;;;;;;;;;5029357;22;20539;-66
2021/09/27 10:00:11;;;;;;;18.30;10.70;;;;;;;;;;5014214;28;20140;-66
2021/09/27 10:02:40;;;;;;;20.27;12.38;;;;;;;;;;5014063;28;20054;-66
2021/09/27 10:05:10;;;;;;;15.98;10.13;;;;;;;;;;5013791;28;20049;-66
2021/09/27 10:07:51;;;;;;;19.58;11.38;;;;;;;;;;5014590;28;20046;-66
2021/09/27 10:10:34;;;;;;;17.90;10.75;;;;;;;;;;5013827;28;20054;-66
2021/09/27 10:13:03;;;;;;;17.02;10.15;;;;;;;;;;5013804;28;20052;-66
2021/09/27 10:15:46;;;;;;;19.40;11.27;;;;;;;;;;5013719;28;20042;-66
2021/09/27 10:18:25;;;;;;;20.85;10.82;;;;;;;;;;5013950;28;20054;-66
2021/09/27 10:21:06;;;;;;;15.00;9.23;;;;;;;;;;5014243;28;20042;-67
2021/09/27 10:23:38;;;;;;;15.30;9.20;;;;;;;;;;5013313;28;20218;-67
2021/09/27 10:26:27;;;;;;;30.33;19.55;;;;;;;;;;5013591;28;20400;-66
2021/09/27 10:28:57;;;;;;;19.38;13.38;;;;;;;;;;5013604;28;20120;-68
2021/09/27 10:31:26;;;;;;;15.67;10.53;;;;;;;;;;5013486;28;20046;-68
2021/09/27 10:34:00;;;;;;;19.05;11.27;;;;;;;;;;5013119;28;20331;-67
2021/09/27 10:36:35;;;;;;;18.13;11.18;;;;;;;;;;5013354;28;20049;-67
2021/09/27 10:39:06;;;;;;;16.02;10.70;;;;;;;;;;5013838;28;20566;-67
2021/09/27 10:41:40;;;;;;;19.27;11.45;;;;;;;;;;5013370;28;20419;-67
2021/09/27 10:44:13;;;;;;;15.70;10.00;;;;;;;;;;5013234;28;20423;-67
2021/09/27 10:46:43;;;;;;;15.85;10.13;;;;;;;;;;5013118;28;20060;-67
2021/09/27 10:49:17;;;;;;;14.13;9.38;;;;;;;;;;5013324;28;20487;-66
2021/09/27 10:51:47;;;;;;;17.10;10.32;;;;;;;;;;5013198;28;20558;-67
2021/09/27 10:54:34;;;;;;;16.83;10.90;;;;;;;;;;5012992;28;20115;-66
2021/09/27 10:57:02;;;;;;;16.52;10.13;;;;;;;;;;5031620;28;20057;-67
2021/09/27 10:59:36;;;;;;;19.13;10.23;;;;;;;;;;5032770;28;20085;-67
2021/09/27 11:02:14;;;;;;;17.48;9.68;;;;;;;;;;5032683;28;20139;-66
2021/09/27 11:04:45;;;;;;;19.02;11.82;;;;;;;;;;5032303;28;20059;-67
2021/09/27 11:07:23;;;;;;;18.17;10.88;;;;;;;;;;5032761;28;20048;-67
2021/09/27 11:09:55;;;;;;;17.33;10.55;;;;;;;;;;5032786;28;20128;-67
2021/09/27 11:12:32;;;;;;;19.77;11.38;;;;;;;;;;5032566;28;20064;-67
2021/09/27 11:15:07;;;;;;;16.52;11.20;;;;;;;;;;5032150;28;20499;-67
2021/09/27 11:17:43;;;;;;;17.33;10.38;;;;;;;;;;5032346;28;20049;-66
2021/09/27 11:20:41;;;;;;;20.55;12.07;;;;;;;;;;5032605;28;20051;-67
2021/09/27 11:23:21;;;;;;;18.10;11.70;;;;;;;;;;5031979;28;20049;-67
2021/09/27 11:26:05;;;;;;;18.63;12.35;;;;;;;;;;5032364;28;20482;-66
2021/09/27 11:28:46;;;;;;;17.83;11.27;;;;;;;;;;5032454;28;20068;-66
2021/09/27 11:31:35;;;;;;;16.55;11.10;;;;;;;;;;5032171;28;20063;-67
2021/09/27 11:34:44;;;;;;;18.75;10.45;;;;;;;;;;5031987;28;20045;-67
2021/09/27 11:37:18;;;;;;;37.97;18.20;;;;;;;;;;5032433;28;20053;-68
2021/09/27 11:39:48;;;;;;;18.77;10.73;;;;;;;;;;5032109;28;20144;-67
2021/09/27 11:42:36;;;;;;;21.63;11.73;;;;;;;;;;5032231;28;20045;-67
2021/09/27 11:45:34;;;;;;;18.77;12.30;;;;;;;;;;5031662;28;20136;-67
2021/09/27 11:48:06;;;;;;;19.77;11.70;;;;;;;;;;5032465;28;20501;-67
2021/09/27 11:51:04;;;;;;;17.67;11.57;;;;;;;;;;5032221;28;20053;-67
2021/09/27 11:53:46;;;;;;;17.90;10.60;;;;;;;;;;5031621;28;20050;-67
2021/09/27 11:56:20;;;;;;;19.67;10.13;;;;;;;;;;5019729;28;20060;-68
2021/09/27 11:58:53;;;;;;;17.17;10.73;;;;;;;;;;5012422;28;20050;-67
2021/09/27 12:01:36;;;;;;;17.05;10.98;;;;;;;;;;5012457;28;20463;-67
2021/09/27 12:04:16;;;;;;;16.35;10.77;;;;;;;;;;5012272;28;20561;-68
2021/09/27 12:06:48;;;;;;;17.35;10.38;;;;;;;;;;5012317;28;20060;-67
2021/09/27 12:09:23;;;;;;;16.73;10.10;;;;;;;;;;5011999;28;20050;-67
2021/09/27 12:11:53;;;;;;;17.02;11.20;;;;;;;;;;5012251;28;20056;-67
2021/09/27 12:14:22;;;;;;;18.60;10.83;;;;;;;;;;5011782;28;20135;-67
2021/09/27 12:16:53;;;;;;;16.33;10.13;;;;;;;;;;5012027;28;20513;-67
2021/09/27 12:19:23;;;;;;;18.92;11.85;;;;;;;;;;5011920;28;20057;-67
2021/09/27 12:21:52;;;;;;;17.83;11.38;;;;;;;;;;5011988;28;20053;-67
2021/09/27 12:24:23;;;;;;;17.67;10.77;;;;;;;;;;5011849;28;20087;-68
2021/09/27 12:26:54;;;;;;;19.63;11.45;;;;;;;;;;5011992;28;20064;-68
2021/09/27 12:29:24;;;;;;;16.80;10.73;;;;;;;;;;5011640;28;20045;-67
2021/09/27 12:31:55;;;;;;;18.08;10.50;;;;;;;;;;5012004;28;20410;-67
2021/09/27 12:34:25;;;;;;;19.13;11.50;;;;;;;;;;5011676;28;20051;-67
2021/09/27 12:36:53;;;;;;;19.85;12.07;;;;;;;;;;5012332;28;20053;-67
2021/09/27 12:39:28;;;;;;;27.30;17.00;;;;;;;;;;5012122;28;20053;-68
2021/09/27 12:41:57;;;;;;;33.35;21.33;;;;;;;;;;5011926;28;20049;-68
2021/09/27 12:44:28;;;;;;;23.90;14.50;;;;;;;;;;5011634;28;20064;-67
2021/09/27 12:46:58;;;;;;;16.17;10.63;;;;;;;;;;5011792;28;20125;-67
2021/09/27 12:49:32;;;;;;;18.85;11.50;;;;;;;;;;5011763;28;20046;-67
2021/09/27 12:52:01;;;;;;;19.38;12.00;;;;;;;;;;5011916;28;20454;-67
2021/09/27 12:54:32;;;;;;;20.00;11.98;;;;;;;;;;5011478;28;20411;-67
2021/09/27 12:57:21;;;;;;;26.63;18.25;;;;;;;;;;5030964;28;20048;-68
2021/09/27 12:59:51;;;;;;;18.13;12.13;;;;;;;;;;5035587;28;20049;-67
2021/09/27 13:02:20;;;;;;;20.67;12.80;;;;;;;;;;5034967;28;20136;-67
2021/09/27 13:04:53;;;;;;;18.10;10.85;;;;;;;;;;5035209;28;20068;-67
2021/09/27 13:07:21;;;;;;;21.83;14.18;;;;;;;;;;5035075;28;20414;-67
2021/09/27 13:10:06;;;;;;;21.50;13.75;;;;;;;;;;5034817;28;20045;-67
2021/09/27 13:12:35;;;;;;;22.48;14.30;;;;;;;;;;5035343;28;20651;-67
2021/09/27 13:15:06;;;;;;;16.70;11.00;;;;;;;;;;5034876;28;20049;-67
2021/09/27 13:17:38;;;;;;;18.67;12.23;;;;;;;;;;5035332;28;20086;-68
2021/09/27 13:20:30;;;;;;;17.08;11.52;;;;;;;;;;5034936;28;20076;-68
2021/09/27 13:22:58;;;;;;;15.13;10.57;;;;;;;;;;5035024;28;20060;-68
2021/09/27 13:25:31;;;;;;;18.35;12.32;;;;;;;;;;5034915;28;20054;-68
2021/09/27 13:28:03;;;;;;;17.35;10.63;;;;;;;;;;5034770;28;20441;-68
2021/09/27 13:30:33;;;;;;;16.52;10.18;;;;;;;;;;5034798;28;20557;-68
2021/09/27 13:33:04;;;;;;;24.17;11.77;;;;;;;;;;5034937;28;20458;-68
2021/09/27 13:35:35;;;;;;;18.40;11.15;;;;;;;;;;5034291;28;20049;-69
2021/09/27 13:38:07;;;;;;;17.70;10.18;;;;;;;;;;5034780;28;20060;-66
2021/09/27 13:40:39;;;;;;;18.98;11.93;;;;;;;;;;5034815;28;20075;-67
2021/09/27 13:43:18;;;;;;;17.85;12.52;;;;;;;;;;5034562;28;20137;-67
2021/09/27 13:45:47;;;;;;;17.92;11.02;;;;;;;;;;5035084;28;20041;-68
2021/09/27 13:48:14;;;;;;;29.33;20.52;;;;;;;;;;5034545;28;20045;-67
2021/09/27 13:50:44;;;;;;;21.75;15.60;;;;;;;;;;5034460;28;20136;-67
2021/09/27 13:53:15;;;;;;;13.77;9.98;;;;;;;;;;5034411;28;20048;-68
2021/09/27 13:55:44;;;;;;;15.02;10.10;;;;;;;;;;5026719;28;20050;-68
2021/09/27 13:58:11;;;;;;;18.25;13.10;;;;;;;;;;5014806;28;20046;-68
2021/09/27 14:00:39;;;;;;;18.38;13.50;;;;;;;;;;5014624;28;20474;-68
2021/09/27 14:03:07;;;;;;;18.42;13.48;;;;;;;;;;5014437;28;20081;-68
2021/09/27 14:05:34;;;;;;;13.70;10.15;;;;;;;;;;5014328;28;20053;-68
2021/09/27 14:08:07;;;;;;;14.85;10.07;;;;;;;;;;5014045;28;20049;-68
2021/09/27 14:10:35;;;;;;;16.27;11.23;;;;;;;;;;5014227;28;20049;-68
2021/09/27 14:13:05;;;;;;;19.13;11.75;;;;;;;;;;5014563;28;20180;-68
2021/09/27 14:15:32;;;;;;;16.30;11.93;;;;;;;;;;5014396;28;20480;-68
2021/09/27 14:17:59;;;;;;;14.57;10.13;;;;;;;;;;5014140;28;20054;-68
2021/09/27 14:20:27;;;;;;;16.98;10.75;;;;;;;;;;5014273;28;20096;-68
2021/09/27 14:22:54;;;;;;;16.25;10.70;;;;;;;;;;5014155;28;20061;-67
2021/09/27 14:25:22;;;;;;;25.55;16.92;;;;;;;;;;5014111;28;20569;-68
2021/09/27 14:27:49;;;;;;;16.98;10.98;;;;;;;;;;5014113;28;20056;-68
2021/09/27 14:30:18;;;;;;;18.92;10.73;;;;;;;;;;5013952;28;20046;-68
2021/09/27 14:32:45;;;;;;;18.17;11.55;;;;;;;;;;5014127;28;20545;-68
2021/09/27 14:35:13;;;;;;;13.98;9.50;;;;;;;;;;5013567;28;20561;-68
2021/09/27 14:37:40;;;;;;;14.95;9.93;;;;;;;;;;5013962;28;20050;-67
2021/09/27 14:40:08;;;;;;;13.52;9.93;;;;;;;;;;5013786;28;20052;-67
2021/09/27 14:42:35;;;;;;;13.48;9.70;;;;;;;;;;5014496;28;20050;-68
2021/09/27 14:45:04;;;;;;;14.65;9.20;;;;;;;;;;5014113;28;20073;-68
2021/09/27 14:47:33;;;;;;;17.42;10.55;;;;;;;;;;5014082;28;20049;-68
2021/09/27 14:50:01;;;;;;;18.30;11.03;;;;;;;;;;5013665;28;20045;-68
2021/09/27 14:52:28;;;;;;;16.02;10.02;;;;;;;;;;5014183;28;20058;-68
2021/09/27 14:54:55;;;;;;;15.38;9.65;;;;;;;;;;5014943;28;20045;-67
2021/09/27 14:57:22;;;;;;;15.88;10.02;;;;;;;;;;5033703;28;20136;-68
2021/09/27 14:59:49;;;;;;;28.33;18.75;;;;;;;;;;5033638;28;20055;-67